createdAt,value
2022-12-26T00:01:22.349Z,45.80
2022-12-26T00:06:47.180Z,49.48
2022-12-26T00:12:09.449Z,49.93
2022-12-26T00:17:31.670Z,42.03
2022-12-26T00:22:54.879Z,44.03
2022-12-26T00:28:17.462Z,47.40
2022-12-26T00:33:43.080Z,45.83
2022-12-26T00:39:06.593Z,51.40
2022-12-26T00:44:28.851Z,51.63
2022-12-26T00:50:12.539Z,46.43
2022-12-26T00:55:15.673Z,49.13
2022-12-26T01:00:38.537Z,46.03
2022-12-26T01:06:02.845Z,46.53
2022-12-26T01:11:43.398Z,45.90
2022-12-26T01:17:05.976Z,47.10
2022-12-26T01:22:28.538Z,41.57
2022-12-26T01:27:51.997Z,44.17
2022-12-26T01:33:14.441Z,41.55
2022-12-26T01:38:37.682Z,45.57
2022-12-26T01:44:12.723Z,45.03
2022-12-26T01:49:44.445Z,43.23
2022-12-26T01:55:09.791Z,42.43
2022-12-26T02:00:33.223Z,36.55
2022-12-26T02:05:56.431Z,37.17
2022-12-26T02:11:41.746Z,41.25
2022-12-26T02:17:04.801Z,38.53
2022-12-26T02:23:13.513Z,42.95
2022-12-26T02:28:52.796Z,37.85
2022-12-26T02:34:28.884Z,33.08
2022-12-26T02:40:10.932Z,31.30
2022-12-26T02:46:17.730Z,31.45
2022-12-26T02:52:21.115Z,29.52
2022-12-26T02:58:15.139Z,29.63
2022-12-26T03:03:58.454Z,27.42
2022-12-26T03:09:49.513Z,30.32
2022-12-26T03:15:22.307Z,29.93
2022-12-26T03:20:50.811Z,30.12
2022-12-26T03:26:42.165Z,33.25
2022-12-26T03:32:05.197Z,30.83
2022-12-26T03:43:47.895Z,30.80
2022-12-26T03:49:38.579Z,33.03
2022-12-26T03:55:41.718Z,30.47
2022-12-26T04:01:25.119Z,38.40
2022-12-26T04:07:18.936Z,39.77
2022-12-26T04:13:01.987Z,42.87
2022-12-26T04:18:47.591Z,45.27
2022-12-26T04:24:34.009Z,43.73
2022-12-26T04:30:14.383Z,41.07
2022-12-26T04:36:20.539Z,45.77
2022-12-26T04:42:03.665Z,40.83
2022-12-26T04:47:26.492Z,42.97
2022-12-26T04:53:01.355Z,43.40
2022-12-26T04:58:24.676Z,40.77
2022-12-26T05:04:04.750Z,41.53
2022-12-26T05:09:35.585Z,40.03
2022-12-26T05:14:57.860Z,37.55
2022-12-26T05:20:38.562Z,38.87
2022-12-26T05:26:20.656Z,37.30
2022-12-26T05:31:44.175Z,37.15
2022-12-26T05:37:09.908Z,37.40
2022-12-26T05:42:32.109Z,36.37
2022-12-26T05:47:54.321Z,37.83
2022-12-26T05:53:17.415Z,37.60
2022-12-26T05:58:40.599Z,37.07
2022-12-26T06:04:06.141Z,34.73
2022-12-26T06:09:30.933Z,34.20
2022-12-26T06:14:53.279Z,34.85
2022-12-26T06:20:16.280Z,37.08
2022-12-26T06:25:38.934Z,35.05
2022-12-26T06:31:01.262Z,34.97
2022-12-26T06:36:27.923Z,37.23
2022-12-26T06:41:50.116Z,37.40
2022-12-26T06:47:12.364Z,39.40
2022-12-26T06:52:35.182Z,37.73
2022-12-26T06:57:58.439Z,43.30
2022-12-26T07:03:20.817Z,33.45
2022-12-26T07:08:43.040Z,26.50
2022-12-26T07:14:06.226Z,23.60
2022-12-26T07:19:29.463Z,22.80
2022-12-26T07:24:51.672Z,18.37
2022-12-26T07:30:14.809Z,24.03
2022-12-26T07:35:37.160Z,22.93
2022-12-26T07:41:02.770Z,20.35
2022-12-26T07:46:25.182Z,21.83
2022-12-26T07:51:47.527Z,20.35
2022-12-26T07:57:46.344Z,20.30
2022-12-26T08:02:34.191Z,18.23
2022-12-26T08:07:59.216Z,16.23
2022-12-26T08:13:21.514Z,18.40
2022-12-26T08:18:45.391Z,18.30
2022-12-26T08:24:07.660Z,16.00
2022-12-26T08:29:30.014Z,13.65
2022-12-26T08:34:53.149Z,15.90
2022-12-26T08:40:26.806Z,14.95
2022-12-26T08:45:41.126Z,17.40
2022-12-26T08:51:15.109Z,13.72
2022-12-26T08:56:40.148Z,13.38
2022-12-26T09:02:02.689Z,12.70
2022-12-26T09:07:26.578Z,13.33
2022-12-26T09:12:48.960Z,10.43
2022-12-26T09:18:12.762Z,11.45
2022-12-26T09:23:36.267Z,11.73
2022-12-26T09:28:59.657Z,11.77
2022-12-26T09:34:23.376Z,12.10
2022-12-26T09:39:46.208Z,14.57
2022-12-26T09:45:25.341Z,14.23
2022-12-26T09:50:51.506Z,12.03
2022-12-26T10:01:58.930Z,9.57
2022-12-26T10:07:26.247Z,13.10
2022-12-26T10:13:22.606Z,11.27
2022-12-26T10:19:32.685Z,10.70
2022-12-26T10:24:55.799Z,9.57
2022-12-26T10:30:23.357Z,9.70
2022-12-26T10:35:52.205Z,11.03
2022-12-26T10:41:25.524Z,11.73
2022-12-26T10:47:16.044Z,10.40
2022-12-26T10:57:59.772Z,7.33
2022-12-26T11:03:25.941Z,7.60
2022-12-26T11:08:54.940Z,6.47
2022-12-26T11:14:36.355Z,8.33
2022-12-26T11:20:22.786Z,6.07
2022-12-26T11:25:46.777Z,6.33
2022-12-26T11:31:13.088Z,8.97
2022-12-26T11:36:40.711Z,6.53
2022-12-26T11:42:04.695Z,6.73
2022-12-26T11:47:35.996Z,8.07
2022-12-26T11:53:07.164Z,6.77
2022-12-26T11:58:33.676Z,6.07
2022-12-26T12:04:01.237Z,9.60
2022-12-26T12:09:53.741Z,5.30
2022-12-26T12:15:41.729Z,5.87
2022-12-26T12:21:33.168Z,6.90
2022-12-26T12:27:06.261Z,5.12
2022-12-26T12:38:53.152Z,5.33
2022-12-26T12:44:23.422Z,5.90
2022-12-26T12:50:15.343Z,4.00
2022-12-26T12:56:05.340Z,6.80
2022-12-26T13:01:36.147Z,3.40
2022-12-26T13:07:20.222Z,7.87
2022-12-26T13:12:48.926Z,7.40
2022-12-26T13:18:23.191Z,7.97
2022-12-26T13:24:19.644Z,4.53
2022-12-26T13:29:55.170Z,5.37
2022-12-26T13:35:37.069Z,4.95
2022-12-26T13:41:24.712Z,5.97
2022-12-26T13:46:58.465Z,8.13
2022-12-26T13:52:31.207Z,5.50
2022-12-26T13:57:56.727Z,7.28
2022-12-26T14:03:36.271Z,5.87
2022-12-26T14:09:30.694Z,6.13
2022-12-26T14:15:14.552Z,5.13
2022-12-26T14:21:03.527Z,6.03
2022-12-26T14:26:40.193Z,5.90
2022-12-26T14:32:35.784Z,6.03
2022-12-26T14:38:30.095Z,7.05
2022-12-26T14:43:58.101Z,8.25
2022-12-26T14:49:47.498Z,5.43
2022-12-26T14:55:19.691Z,9.33
2022-12-26T15:00:44.905Z,10.77
2022-12-26T15:06:17.980Z,6.80
2022-12-26T15:12:25.880Z,8.67
2022-12-26T15:17:58.929Z,8.13
2022-12-26T15:23:41.397Z,6.97
2022-12-26T15:29:35.063Z,7.63
2022-12-26T15:35:40.253Z,8.00
2022-12-26T15:41:13.331Z,6.33
2022-12-26T15:46:52.465Z,7.20
2022-12-26T15:52:46.480Z,9.27
2022-12-26T15:58:28.414Z,7.53
2022-12-26T16:03:58.604Z,10.40
2022-12-26T16:15:18.587Z,8.38
2022-12-26T16:21:04.901Z,9.15
2022-12-26T16:26:31.234Z,7.97
2022-12-26T16:31:54.340Z,9.40
2022-12-26T16:37:17.933Z,6.55
2022-12-26T16:42:51.610Z,5.77
2022-12-26T16:48:16.028Z,7.73
2022-12-26T16:53:50.875Z,9.28
2022-12-26T16:59:18.476Z,5.17
2022-12-26T17:04:43.053Z,6.37
2022-12-26T17:10:13.766Z,3.83
2022-12-26T17:15:46.188Z,5.00
2022-12-26T17:21:21.728Z,3.90
2022-12-26T17:26:48.693Z,3.80
2022-12-26T17:32:14.731Z,4.60
2022-12-26T17:37:40.588Z,5.00
2022-12-26T17:43:13.068Z,10.10
2022-12-26T17:48:36.161Z,4.47
2022-12-26T17:54:04.099Z,5.20
2022-12-26T17:59:28.029Z,4.97
2022-12-26T18:04:50.618Z,4.97
2022-12-26T18:10:14.236Z,4.92
2022-12-26T18:15:38.755Z,6.58
2022-12-26T18:21:01.382Z,6.57
2022-12-26T18:26:35.677Z,5.37
2022-12-26T18:31:58.806Z,6.30
2022-12-26T18:37:22.739Z,5.53
2022-12-26T18:42:45.028Z,5.37
2022-12-26T18:48:08.236Z,5.62
2022-12-26T18:53:31.477Z,6.87
2022-12-26T18:58:58.072Z,6.93
2022-12-26T19:04:21.202Z,7.12
2022-12-26T19:09:43.803Z,8.40
2022-12-26T19:15:06.582Z,8.33
2022-12-26T19:20:39.081Z,6.93
2022-12-26T19:25:59.747Z,7.00
2022-12-26T19:31:25.889Z,6.90
2022-12-26T19:36:48.973Z,12.45
2022-12-26T19:42:12.215Z,9.05
2022-12-26T19:47:35.535Z,8.38
2022-12-26T19:53:00.189Z,10.15
2022-12-26T19:58:25.058Z,8.03
2022-12-26T20:03:50.154Z,7.20
2022-12-26T20:09:18.904Z,10.15
2022-12-26T20:14:43.940Z,9.35
2022-12-26T20:20:07.898Z,10.50
2022-12-26T20:25:33.144Z,8.08
2022-12-26T20:30:58.184Z,11.10
2022-12-26T20:36:30.274Z,7.97
2022-12-26T20:41:55.350Z,11.27
2022-12-26T20:47:18.333Z,10.50
2022-12-26T20:52:41.164Z,8.43
2022-12-26T20:58:03.918Z,7.37
2022-12-26T21:03:27.227Z,8.93
2022-12-26T21:08:52.241Z,8.65
2022-12-26T21:14:19.261Z,6.78
2022-12-26T21:19:42.828Z,6.70
2022-12-26T21:25:05.119Z,7.50
2022-12-26T21:30:28.157Z,7.83
2022-12-26T21:35:52.867Z,6.60
2022-12-26T21:41:21.652Z,6.17
2022-12-26T21:46:44.785Z,5.97
2022-12-26T21:52:07.516Z,6.97
2022-12-26T21:57:33.133Z,9.53
2022-12-26T22:03:14.467Z,6.37
2022-12-26T22:08:37.012Z,6.77
2022-12-26T22:14:01.241Z,7.83
2022-12-26T22:24:57.376Z,5.57
2022-12-26T22:30:20.091Z,7.40
2022-12-26T22:35:42.493Z,5.70
2022-12-26T22:41:12.495Z,6.60
2022-12-26T22:46:34.889Z,3.53
2022-12-26T22:51:57.189Z,3.37
2022-12-26T22:57:20.635Z,2.63
2022-12-26T23:02:42.890Z,3.73
2022-12-26T23:08:05.561Z,2.87
2022-12-26T23:13:30.761Z,3.33
2022-12-26T23:19:23.219Z,4.30
2022-12-26T23:24:47.895Z,5.17
2022-12-26T23:30:20.091Z,11.27
2022-12-26T23:35:43.262Z,6.57
2022-12-26T23:41:05.503Z,7.40
2022-12-26T23:46:29.200Z,8.47
2022-12-26T23:51:51.603Z,10.83
2022-12-26T23:57:13.923Z,5.93
